Time;durP1;ratioP1;P1;durP2;ratioP2;P2;SDS_P1;SDS_P2;PMS_P1;PMS_P2;Temp;Humidity;BMP_temperature;BMP_pressure;BME280_temperature;BME280_humidity;BME280_pressure;Samples;Min_cycle;Max_cycle;Signal;HPM_P1;HPM_P2
2023/01/04 00:00:31;;;;;;;5.80;1.37;;;10.20;95.40;;;;;;5114540;28;20643;-61
2023/01/04 00:02:58;;;;;;;5.80;1.20;;;10.20;95.30;;;;;;5114204;28;20458;-61
2023/01/04 00:05:25;;;;;;;3.40;1.37;;;10.20;95.30;;;;;;5114532;28;20446;-61
2023/01/04 00:07:51;;;;;;;4.20;1.53;;;10.20;95.40;;;;;;5114254;28;20553;-61
2023/01/04 00:10:18;;;;;;;2.60;1.20;;;10.30;95.40;;;;;;5105619;28;20455;-61
2023/01/04 00:12:45;;;;;;;3.83;1.33;;;10.30;95.40;;;;;;5114091;28;20483;-61
2023/01/04 00:15:13;;;;;;;3.37;1.07;;;10.40;95.40;;;;;;5113868;28;21017;-61
2023/01/04 00:17:40;;;;;;;4.37;1.70;;;10.40;95.50;;;;;;5113883;28;20443;-61
2023/01/04 00:20:07;;;;;;;4.50;1.30;;;10.40;95.50;;;;;;5114102;28;20479;-61
2023/01/04 00:22:34;;;;;;;5.93;1.50;;;10.40;95.60;;;;;;5114142;28;20478;-61
2023/01/04 00:25:01;;;;;;;1.80;1.10;;;10.40;95.70;;;;;;5114041;28;20450;-61
2023/01/04 00:27:27;;;;;;;2.13;1.20;;;10.40;95.70;;;;;;5114060;28;20475;-61
2023/01/04 00:29:54;;;;;;;5.37;1.20;;;10.50;95.70;;;;;;5114092;28;20446;-61
2023/01/04 00:32:22;;;;;;;6.20;1.30;;;10.50;95.80;;;;;;5114373;28;20876;-61
2023/01/04 00:34:49;;;;;;;4.33;1.40;;;10.60;95.60;;;;;;5114628;28;20456;-61
2023/01/04 00:37:15;;;;;;;3.30;1.13;;;10.60;95.60;;;;;;5114644;28;20811;-61
2023/01/04 00:39:42;;;;;;;1.43;0.87;;;10.60;95.70;;;;;;5114570;28;20446;-61
2023/01/04 00:42:09;;;;;;;3.57;1.13;;;10.60;95.90;;;;;;5114832;28;20474;-61
2023/01/04 00:44:35;;;;;;;6.33;1.50;;;10.60;96.10;;;;;;5114932;28;20450;-61
2023/01/04 00:47:04;;;;;;;4.10;1.00;;;10.60;96.20;;;;;;5115656;28;20446;-61
2023/01/04 00:49:32;;;;;;;1.37;0.90;;;10.60;96.30;;;;;;5114825;28;20496;-61
2023/01/04 00:51:59;;;;;;;3.13;1.00;;;10.60;96.40;;;;;;5114755;28;20478;-61
2023/01/04 00:54:26;;;;;;;3.43;1.07;;;10.60;96.70;;;;;;5115220;28;20434;-61
2023/01/04 00:56:53;;;;;;;4.03;1.20;;;10.50;96.80;;;;;;5114028;28;20440;-60
2023/01/04 00:59:21;;;;;;;3.70;1.27;;;10.60;97.40;;;;;;5113773;28;20452;-60
2023/01/04 01:01:47;;;;;;;5.60;1.30;;;10.50;98.00;;;;;;5113587;28;20832;-61
2023/01/04 01:04:17;;;;;;;4.13;1.20;;;10.60;98.30;;;;;;5114939;28;20452;-61
2023/01/04 01:06:45;;;;;;;6.00;1.13;;;10.60;98.50;;;;;;5117672;28;20454;-61
2023/01/04 01:09:12;;;;;;;10.50;1.47;;;10.50;98.60;;;;;;5117273;28;21008;-61
2023/01/04 01:11:39;;;;;;;2.53;1.30;;;10.50;98.70;;;;;;5117644;28;20487;-61
2023/01/04 01:14:06;;;;;;;7.40;1.60;;;10.50;99.00;;;;;;5117706;28;20429;-60
2023/01/04 01:16:34;;;;;;;4.80;1.43;;;10.50;99.00;;;;;;5117449;28;20449;-60
2023/01/04 01:19:00;;;;;;;2.50;1.13;;;10.50;99.40;;;;;;5117241;28;20445;-61
2023/01/04 01:21:28;;;;;;;4.50;1.30;;;10.50;99.60;;;;;;5117035;28;20467;-61
2023/01/04 01:23:56;;;;;;;4.97;1.47;;;10.50;99.80;;;;;;5116890;28;20974;-61
2023/01/04 01:26:25;;;;;;;2.30;1.40;;;10.50;99.80;;;;;;5117222;28;20456;-61
2023/01/04 01:28:52;;;;;;;6.20;1.73;;;10.40;99.80;;;;;;5117158;28;20546;-61
2023/01/04 01:31:23;;;;;;;2.90;1.93;;;10.50;99.90;;;;;;5117183;28;20988;-61
2023/01/04 01:33:53;;;;;;;1.80;1.23;;;10.50;99.90;;;;;;5117770;28;20438;-61
2023/01/04 01:36:22;;;;;;;5.27;1.50;;;10.40;99.90;;;;;;5117306;28;20439;-61
2023/01/04 01:38:49;;;;;;;4.70;1.50;;;10.40;99.90;;;;;;5117100;28;20452;-61
2023/01/04 01:41:19;;;;;;;3.50;1.30;;;10.40;99.90;;;;;;5116444;28;20492;-61
2023/01/04 01:43:50;;;;;;;5.33;1.63;;;10.40;99.90;;;;;;5116998;28;20910;-61
2023/01/04 01:46:19;;;;;;;7.73;1.40;;;10.40;99.90;;;;;;5116759;28;20940;-61
2023/01/04 01:48:46;;;;;;;5.07;1.20;;;10.40;99.90;;;;;;5116691;28;21032;-61
2023/01/04 01:51:16;;;;;;;3.40;1.10;;;10.40;99.90;;;;;;5116846;28;20474;-61
2023/01/04 01:53:46;;;;;;;3.50;1.40;;;10.50;99.90;;;;;;5116797;28;20448;-61
2023/01/04 01:56:18;;;;;;;4.93;1.30;;;10.50;99.90;;;;;;5116437;28;20907;-61
2023/01/04 01:58:52;;;;;;;1.77;1.10;;;10.50;99.90;;;;;;5117140;28;20427;-61
2023/01/04 02:01:19;;;;;;;4.17;1.40;;;10.50;99.90;;;;;;5108259;28;20477;-61
2023/01/04 02:03:46;;;;;;;3.73;2.00;;;10.50;99.90;;;;;;5116271;28;20873;-61
2023/01/04 02:06:17;;;;;;;3.13;1.67;;;10.50;99.90;;;;;;5116358;28;20782;-60
2023/01/04 02:08:45;;;;;;;3.83;1.23;;;10.50;99.90;;;;;;5116209;28;20995;-60
2023/01/04 02:11:12;;;;;;;1.77;1.60;;;10.50;99.90;;;;;;5116262;28;20476;-60
2023/01/04 02:16:43;;;;;;;3.40;1.17;;;10.40;99.90;;;;;;5115294;28;20401;-61
2023/01/04 02:19:27;;;;;;;3.23;1.00;;;10.40;99.90;;;;;;5116454;28;20433;-61
2023/01/04 02:22:22;;;;;;;3.63;1.40;;;10.50;99.90;;;;;;5116569;28;20478;-61
2023/01/04 02:25:08;;;;;;;1.83;0.90;;;10.50;99.90;;;;;;5084763;28;20451;-61
2023/01/04 02:27:52;;;;;;;4.43;0.97;;;10.40;99.90;;;;;;5116476;28;20434;-61
2023/01/04 02:31:13;;;;;;;2.30;0.97;;;10.40;99.90;;;;;;5116338;28;20427;-61
2023/01/04 02:33:50;;;;;;;6.23;0.90;;;10.40;99.90;;;;;;5116239;28;20448;-61
2023/01/04 02:36:23;;;;;;;2.13;0.90;;;10.40;99.90;;;;;;5116246;28;20829;-61
2023/01/04 02:39:05;;;;;;;3.57;0.80;;;10.40;99.90;;;;;;5116199;28;20426;-61
2023/01/04 02:41:34;;;;;;;2.70;1.50;;;10.50;99.90;;;;;;5116255;28;20461;-61
2023/01/04 02:46:58;;;;;;;3.50;1.33;;;10.50;99.90;;;;;;5116432;28;20405;-61
2023/01/04 02:52:11;;;;;;;3.40;0.77;;;10.50;99.90;;;;;;5116178;28;20454;-61
2023/01/04 02:54:38;;;;;;;3.03;0.87;;;10.60;99.90;;;;;;5116547;28;20458;-61
2023/01/04 02:57:31;;;;;;;4.30;0.73;;;10.60;99.90;;;;;;5116482;28;20852;-61
2023/01/04 03:00:09;;;;;;;2.43;0.60;;;10.60;99.90;;;;;;5116588;28;20454;-61
2023/01/04 03:08:40;;;;;;;2.90;0.70;;;10.70;99.90;;;;;;5117773;28;20532;-60
2023/01/04 03:12:30;;;;;;;2.80;0.80;;;10.70;99.90;;;;;;5116525;28;20863;-61
2023/01/04 03:13:59;;;;;;;2.93;0.60;;;10.70;99.90;;;;;;5114862;28;20529;-61
2023/01/04 03:16:26;;;;;;;3.07;1.03;;;10.80;99.90;;;;;;5114961;28;20926;-61
2023/01/04 03:18:57;;;;;;;4.03;0.80;;;10.70;99.90;;;;;;5115772;28;20461;-61
2023/01/04 03:21:27;;;;;;;2.57;0.67;;;10.70;99.90;;;;;;5115641;28;20479;-61
2023/01/04 03:35:26;;;;;;;3.70;0.50;;;10.80;99.90;;;;;;5114708;28;20759;-60
2023/01/04 03:49:21;;;;;;;0.60;0.40;;;10.90;99.90;;;;;;5114922;28;20457;-61
2023/01/04 03:51:49;;;;;;;1.60;0.50;;;10.90;99.90;;;;;;5114994;28;20804;-61
2023/01/04 03:54:21;;;;;;;5.23;0.50;;;10.90;99.90;;;;;;5115189;28;20477;-61
2023/01/04 03:56:50;;;;;;;1.67;0.70;;;10.90;99.90;;;;;;5115488;28;20439;-61
2023/01/04 03:59:17;;;;;;;1.80;0.40;;;11.00;99.90;;;;;;5115799;28;20446;-62
2023/01/04 04:01:45;;;;;;;2.07;0.53;;;11.00;99.90;;;;;;5115568;28;20475;-62
2023/01/04 04:09:41;;;;;;;0.93;0.90;;;10.90;99.90;;;;;;5114563;28;20461;-62
2023/01/04 04:12:08;;;;;;;0.80;0.73;;;10.90;99.90;;;;;;5114870;28;20474;-62
2023/01/04 04:14:35;;;;;;;1.40;0.70;;;10.90;99.90;;;;;;5114966;28;20456;-61
2023/01/04 04:17:02;;;;;;;4.53;0.80;;;11.00;99.90;;;;;;5114498;28;20975;-61
2023/01/04 04:19:29;;;;;;;1.80;0.70;;;11.00;99.90;;;;;;5114841;28;20438;-61
2023/01/04 04:21:55;;;;;;;0.77;0.77;;;11.00;99.90;;;;;;5114788;28;20469;-61
2023/01/04 04:24:24;;;;;;;0.53;0.50;;;11.00;99.90;;;;;;5114941;28;20455;-61
2023/01/04 04:26:53;;;;;;;1.10;0.70;;;11.00;99.90;;;;;;5115105;28;20453;-61
2023/01/04 04:29:20;;;;;;;1.10;0.67;;;11.00;99.90;;;;;;5114614;28;20540;-61
2023/01/04 04:31:47;;;;;;;3.90;0.50;;;11.10;99.90;;;;;;5114595;28;20545;-61
2023/01/04 04:34:14;;;;;;;1.33;0.50;;;11.10;99.90;;;;;;5114494;28;20795;-61
2023/01/04 04:36:40;;;;;;;0.63;0.40;;;11.00;99.90;;;;;;5114424;28;20450;-61
2023/01/04 04:39:07;;;;;;;0.63;0.50;;;11.10;99.90;;;;;;5114279;28;20444;-61
2023/01/04 04:41:40;;;;;;;2.93;0.73;;;11.10;99.90;;;;;;5118412;28;20474;-61
2023/01/04 04:44:10;;;;;;;1.83;0.80;;;11.10;99.90;;;;;;5118049;28;20973;-61
2023/01/04 04:46:37;;;;;;;3.33;0.50;;;11.10;99.90;;;;;;5118478;28;20426;-61
2023/01/04 04:49:04;;;;;;;0.83;0.40;;;11.10;99.90;;;;;;5118187;28;20513;-61
2023/01/04 04:51:31;;;;;;;1.10;0.53;;;11.10;99.90;;;;;;5118111;28;20875;-61
2023/01/04 04:53:57;;;;;;;4.67;0.50;;;11.10;99.90;;;;;;5118405;28;20451;-60
2023/01/04 04:56:25;;;;;;;0.60;0.40;;;11.10;99.90;;;;;;5118190;28;20449;-61
2023/01/04 04:58:51;;;;;;;1.20;0.50;;;11.10;99.90;;;;;;5117813;28;20946;-61
2023/01/04 05:01:20;;;;;;;1.17;0.50;;;11.20;99.90;;;;;;5117955;28;20469;-61
2023/01/04 05:03:47;;;;;;;1.77;0.47;;;11.20;99.90;;;;;;5117845;28;20506;-61
2023/01/04 05:06:14;;;;;;;0.80;0.30;;;11.20;99.90;;;;;;5117695;28;21000;-61
2023/01/04 05:08:40;;;;;;;1.27;0.40;;;11.10;99.90;;;;;;5117632;28;20452;-61
2023/01/04 05:11:08;;;;;;;2.90;0.50;;;11.20;99.90;;;;;;5117845;28;20462;-61
2023/01/04 05:13:35;;;;;;;0.67;0.50;;;11.20;99.90;;;;;;5117672;28;20443;-61
2023/01/04 05:16:03;;;;;;;1.83;0.50;;;11.20;99.90;;;;;;5117296;28;20446;-61
2023/01/04 05:18:31;;;;;;;1.90;0.40;;;11.30;99.90;;;;;;5117078;28;20446;-61
2023/01/04 05:20:58;;;;;;;1.67;0.70;;;11.30;99.90;;;;;;5117317;28;20466;-61
2023/01/04 05:23:25;;;;;;;0.80;0.50;;;11.30;99.90;;;;;;5117416;28;20446;-61
2023/01/04 05:25:54;;;;;;;0.53;0.40;;;11.40;99.90;;;;;;5117527;28;20454;-61
2023/01/04 05:28:21;;;;;;;1.60;0.40;;;11.40;99.90;;;;;;5117907;28;20449;-61
2023/01/04 05:30:52;;;;;;;1.03;0.40;;;11.40;99.90;;;;;;5117341;28;20482;-61
2023/01/04 05:33:20;;;;;;;0.60;0.50;;;11.40;99.90;;;;;;5117354;28;20436;-61
2023/01/04 05:35:48;;;;;;;0.50;0.30;;;11.40;99.90;;;;;;5117508;28;20447;-61
2023/01/04 05:38:15;;;;;;;3.10;0.63;;;11.40;99.90;;;;;;5117368;28;20446;-61
2023/01/04 05:40:42;;;;;;;1.53;0.60;;;11.40;99.90;;;;;;5116912;28;20458;-61
2023/01/04 05:43:09;;;;;;;0.60;0.33;;;11.40;99.90;;;;;;5117210;28;20458;-61
2023/01/04 05:45:36;;;;;;;0.67;0.40;;;11.40;99.90;;;;;;5117609;28;20453;-61
2023/01/04 05:48:03;;;;;;;0.87;0.60;;;11.40;99.90;;;;;;5117108;28;20435;-60
2023/01/04 05:50:29;;;;;;;0.70;0.30;;;11.50;99.90;;;;;;5116933;28;20486;-61
2023/01/04 05:52:59;;;;;;;0.57;0.57;;;11.40;99.90;;;;;;5118616;28;20489;-61
2023/01/04 05:55:28;;;;;;;1.37;0.50;;;11.40;99.90;;;;;;5130934;28;20444;-59
2023/01/04 05:57:54;;;;;;;1.03;0.47;;;11.50;99.90;;;;;;5130197;28;20460;-60
2023/01/04 06:00:21;;;;;;;1.60;0.53;;;11.50;99.90;;;;;;5117439;28;20470;-61
2023/01/04 06:02:48;;;;;;;2.33;1.17;;;11.60;99.90;;;;;;5117797;28;20470;-61
2023/01/04 06:05:14;;;;;;;2.53;0.43;;;11.60;99.90;;;;;;5117157;28;20449;-60
2023/01/04 06:07:41;;;;;;;2.40;0.60;;;11.60;99.90;;;;;;5116643;28;20803;-61
2023/01/04 06:10:12;;;;;;;1.00;0.40;;;11.60;99.90;;;;;;5116610;28;20478;-61
2023/01/04 06:12:39;;;;;;;2.00;0.50;;;11.60;99.90;;;;;;5116596;28;20475;-61
2023/01/04 06:15:07;;;;;;;0.40;0.30;;;11.60;99.90;;;;;;5116315;28;20450;-61
2023/01/04 06:17:35;;;;;;;1.50;0.30;;;11.70;99.90;;;;;;5116089;28;20819;-61
2023/01/04 06:20:02;;;;;;;1.10;0.67;;;11.70;99.90;;;;;;5116376;28;20458;-61
2023/01/04 06:22:31;;;;;;;1.07;0.40;;;11.70;99.90;;;;;;5116179;28;20471;-61
2023/01/04 06:24:58;;;;;;;1.17;0.57;;;11.70;99.90;;;;;;5116284;28;20523;-60
2023/01/04 06:27:26;;;;;;;4.10;0.73;;;11.70;99.90;;;;;;5116088;28;20455;-61
2023/01/04 06:29:53;;;;;;;2.30;0.50;;;11.70;99.90;;;;;;5116025;28;20482;-61
2023/01/04 06:32:20;;;;;;;0.93;0.60;;;11.70;99.90;;;;;;5116011;28;20907;-60
2023/01/04 06:34:47;;;;;;;2.20;0.50;;;11.70;99.90;;;;;;5115974;28;20451;-60
2023/01/04 06:37:13;;;;;;;6.70;1.60;;;11.70;99.90;;;;;;5115528;28;20974;-61
2023/01/04 06:39:40;;;;;;;5.60;0.60;;;11.70;99.90;;;;;;5115445;28;20950;-61
2023/01/04 06:42:43;;;;;;;2.53;0.53;;;11.80;99.90;;;;;;5115829;28;20492;-60
2023/01/04 06:44:56;;;;;;;0.67;0.60;;;11.70;99.90;;;;;;5115371;28;20543;-61
2023/01/04 06:47:22;;;;;;;0.90;0.43;;;11.80;99.90;;;;;;5115818;28;20451;-60
2023/01/04 06:49:49;;;;;;;1.37;0.60;;;11.80;99.90;;;;;;5115710;28;20843;-61
2023/01/04 06:52:16;;;;;;;0.50;0.50;;;11.80;99.90;;;;;;5115740;28;20471;-61
2023/01/04 06:54:42;;;;;;;0.57;0.30;;;11.80;99.90;;;;;;5115491;28;20450;-61
2023/01/04 06:57:09;;;;;;;0.37;0.37;;;11.90;99.90;;;;;;5115704;28;20447;-61
2023/01/04 06:59:36;;;;;;;0.53;0.50;;;11.90;99.90;;;;;;5115758;28;20457;-61
2023/01/04 07:02:04;;;;;;;0.30;0.30;;;11.90;99.90;;;;;;5114775;28;20467;-60
2023/01/04 07:04:30;;;;;;;1.13;0.40;;;11.80;99.90;;;;;;5115207;28;20929;-60
2023/01/04 07:06:57;;;;;;;1.23;0.40;;;11.80;99.90;;;;;;5115394;28;20465;-61
2023/01/04 07:09:24;;;;;;;1.60;0.90;;;11.80;99.90;;;;;;5115210;28;21001;-61
2023/01/04 07:11:51;;;;;;;0.70;0.50;;;11.80;99.90;;;;;;5115429;28;20474;-61
2023/01/04 07:14:17;;;;;;;1.10;0.60;;;11.90;99.90;;;;;;5115900;28;20439;-61
2023/01/04 07:16:44;;;;;;;0.87;0.20;;;11.90;99.90;;;;;;5114882;28;20447;-61
2023/01/04 07:19:12;;;;;;;1.33;0.30;;;11.90;99.90;;;;;;5114905;28;20969;-61
2023/01/04 07:21:39;;;;;;;0.40;0.37;;;11.90;99.90;;;;;;5115232;28;20473;-61
2023/01/04 07:24:05;;;;;;;2.17;0.50;;;11.90;99.90;;;;;;5115016;28;20455;-60
2023/01/04 07:26:33;;;;;;;0.93;0.43;;;11.90;99.90;;;;;;5115133;28;20427;-61
2023/01/04 07:29:15;;;;;;;3.00;0.50;;;11.90;99.90;;;;;;5115147;28;20480;-61
2023/01/04 07:31:43;;;;;;;0.50;0.40;;;11.90;99.90;;;;;;5114969;28;20459;-60
2023/01/04 07:34:10;;;;;;;1.00;0.50;;;12.00;99.90;;;;;;5115302;28;20442;-61
2023/01/04 07:36:39;;;;;;;0.50;0.40;;;12.00;99.90;;;;;;5115623;28;20786;-61
2023/01/04 07:39:06;;;;;;;0.77;0.43;;;12.00;99.90;;;;;;5115277;28;20446;-61
2023/01/04 07:41:33;;;;;;;1.63;0.40;;;12.00;99.90;;;;;;5116101;28;20547;-60
2023/01/04 07:44:00;;;;;;;0.40;0.40;;;12.00;99.90;;;;;;5115323;28;20443;-61
2023/01/04 07:46:27;;;;;;;1.10;0.40;;;12.00;99.90;;;;;;5114751;28;20537;-61
2023/01/04 07:48:54;;;;;;;0.70;0.40;;;12.10;99.90;;;;;;5114680;27;20489;-61
2023/01/04 07:51:21;;;;;;;3.80;0.73;;;12.00;99.90;;;;;;5115021;28;20513;-61
2023/01/04 07:53:49;;;;;;;2.03;0.47;;;12.00;99.90;;;;;;5114794;28;20461;-61
2023/01/04 07:56:15;;;;;;;0.73;0.30;;;12.10;99.90;;;;;;5114780;28;20454;-60
2023/01/04 07:58:42;;;;;;;1.07;0.70;;;12.00;99.90;;;;;;5114799;28;20464;-61
2023/01/04 08:01:11;;;;;;;0.40;0.40;;;12.10;99.90;;;;;;5114606;28;20463;-61
2023/01/04 08:03:38;;;;;;;1.80;0.40;;;12.10;99.90;;;;;;5114996;28;20438;-61
2023/01/04 08:06:05;;;;;;;0.40;0.40;;;12.20;99.90;;;;;;5115381;28;20456;-60
2023/01/04 08:08:32;;;;;;;1.50;0.50;;;12.10;99.90;;;;;;5114686;28;20940;-61
2023/01/04 08:11:02;;;;;;;1.30;0.70;;;12.20;99.90;;;;;;5114954;28;20568;-60
2023/01/04 08:13:29;;;;;;;1.90;0.60;;;12.10;99.90;;;;;;5114367;28;20451;-60
2023/01/04 08:15:56;;;;;;;1.03;1.03;;;12.10;99.90;;;;;;5114718;28;20450;-60
2023/01/04 08:18:23;;;;;;;0.93;0.50;;;12.20;99.90;;;;;;5114806;28;20427;-60
2023/01/04 08:20:50;;;;;;;0.63;0.50;;;12.10;99.90;;;;;;5115361;28;20442;-61
2023/01/04 08:23:16;;;;;;;1.27;0.40;;;12.10;99.90;;;;;;5114928;28;20440;-60
2023/01/04 08:25:43;;;;;;;1.93;0.40;;;12.10;99.90;;;;;;5114526;28;20454;-60
2023/01/04 08:28:11;;;;;;;1.10;0.60;;;12.10;99.90;;;;;;5114527;28;20447;-60
2023/01/04 08:30:38;;;;;;;3.23;0.70;;;12.10;99.90;;;;;;5114461;28;20543;-61
2023/01/04 08:33:13;;;;;;;0.70;0.40;;;12.20;99.90;;;;;;5114224;28;20903;-60
2023/01/04 08:35:40;;;;;;;1.27;0.50;;;12.20;99.90;;;;;;5114966;28;20441;-60
2023/01/04 08:38:06;;;;;;;3.90;0.60;;;12.20;99.90;;;;;;5114463;28;20450;-61
2023/01/04 08:40:33;;;;;;;1.23;0.60;;;12.20;99.90;;;;;;5114066;28;20462;-61
2023/01/04 08:43:00;;;;;;;1.10;0.77;;;12.20;99.90;;;;;;5114352;28;20443;-61
2023/01/04 08:45:28;;;;;;;1.30;0.40;;;12.20;99.90;;;;;;5113742;28;20443;-61
2023/01/04 08:47:55;;;;;;;1.33;0.50;;;12.30;99.90;;;;;;5114304;28;20477;-61
2023/01/04 08:50:21;;;;;;;1.73;0.60;;;12.20;99.90;;;;;;5114330;28;20475;-61
2023/01/04 08:52:48;;;;;;;2.83;0.60;;;12.30;99.90;;;;;;5114008;28;20470;-61
2023/01/04 08:55:15;;;;;;;0.40;0.30;;;12.30;99.90;;;;;;5114473;28;20458;-61
2023/01/04 08:57:42;;;;;;;0.93;0.40;;;12.30;99.90;;;;;;5114298;28;20481;-61
2023/01/04 09:00:10;;;;;;;0.73;0.67;;;12.40;99.90;;;;;;5114189;28;20473;-60
2023/01/04 09:02:38;;;;;;;1.63;0.60;;;12.40;99.90;;;;;;5114060;28;20469;-60
2023/01/04 09:05:06;;;;;;;0.40;0.40;;;12.40;99.90;;;;;;5114279;28;20908;-60
2023/01/04 09:07:33;;;;;;;0.63;0.50;;;12.50;99.90;;;;;;5113661;28;20947;-60
2023/01/04 09:10:00;;;;;;;0.50;0.40;;;12.50;99.90;;;;;;5113961;28;20854;-60
2023/01/04 09:12:26;;;;;;;1.17;0.50;;;12.50;99.90;;;;;;5114843;28;20479;-61
2023/01/04 09:14:53;;;;;;;1.30;0.50;;;12.50;99.90;;;;;;5114263;28;20446;-61
2023/01/04 09:17:20;;;;;;;0.40;0.33;;;12.50;99.90;;;;;;5114237;28;20523;-61
2023/01/04 09:19:48;;;;;;;4.90;0.80;;;12.60;99.90;;;;;;5114390;28;20453;-60
2023/01/04 09:22:15;;;;;;;2.20;0.80;;;12.60;99.90;;;;;;5114268;28;20470;-61
2023/01/04 09:24:41;;;;;;;1.17;0.50;;;12.60;99.90;;;;;;5114097;28;20472;-61
2023/01/04 09:27:08;;;;;;;0.70;0.50;;;12.60;99.90;;;;;;5117497;28;20454;-60
2023/01/04 09:29:35;;;;;;;1.33;0.40;;;12.70;99.90;;;;;;5117818;28;20448;-60
2023/01/04 09:32:01;;;;;;;1.17;0.40;;;12.70;99.90;;;;;;5117995;28;20489;-61
2023/01/04 09:34:28;;;;;;;1.23;0.47;;;12.70;99.90;;;;;;5117647;28;20458;-60
2023/01/04 09:36:56;;;;;;;0.60;0.43;;;12.70;99.90;;;;;;5117701;28;20439;-60
2023/01/04 09:39:25;;;;;;;3.03;0.80;;;12.70;99.90;;;;;;5117893;28;20838;-60
2023/01/04 09:41:57;;;;;;;2.83;0.40;;;12.70;99.90;;;;;;5117712;28;20473;-60
2023/01/04 09:44:35;;;;;;;1.70;0.50;;;12.70;99.90;;;;;;5118151;28;20550;-60
2023/01/04 09:47:06;;;;;;;0.70;0.47;;;12.70;99.90;;;;;;5118003;28;20441;-60
2023/01/04 09:49:39;;;;;;;0.53;0.40;;;12.70;99.90;;;;;;5119246;28;20435;-60
2023/01/04 09:52:15;;;;;;;5.20;0.60;;;12.70;99.90;;;;;;5120009;27;20489;-60
2023/01/04 09:54:45;;;;;;;2.33;1.00;;;12.70;99.90;;;;;;5118571;28;20422;-60
2023/01/04 09:57:19;;;;;;;0.93;0.50;;;12.70;99.90;;;;;;5118062;28;20798;-60
2023/01/04 09:59:49;;;;;;;2.70;0.77;;;12.60;99.90;;;;;;5118426;28;20439;-60
2023/01/04 10:02:25;;;;;;;1.27;0.47;;;12.60;99.90;;;;;;5117998;28;20459;-61
2023/01/04 10:04:52;;;;;;;2.67;0.87;;;12.60;99.90;;;;;;5118187;28;20934;-61
2023/01/04 10:07:26;;;;;;;1.33;0.50;;;12.60;99.90;;;;;;5117516;28;20446;-60
2023/01/04 10:09:53;;;;;;;1.80;0.60;;;12.50;99.90;;;;;;5117679;28;20435;-60
2023/01/04 10:12:41;;;;;;;0.93;0.60;;;12.50;99.90;;;;;;5116989;28;20517;-60
2023/01/04 10:15:22;;;;;;;1.50;0.53;;;12.40;99.90;;;;;;5116533;28;20458;-60
2023/01/04 10:18:03;;;;;;;1.67;0.70;;;12.40;99.90;;;;;;5116050;28;20434;-60
2023/01/04 10:20:53;;;;;;;0.80;0.67;;;12.40;99.90;;;;;;5116661;28;20423;-60
2023/01/04 10:23:43;;;;;;;2.77;0.67;;;12.40;99.90;;;;;;5115230;28;20466;-60
2023/01/04 10:26:13;;;;;;;0.70;0.60;;;12.40;99.90;;;;;;5116538;28;20461;-60
2023/01/04 10:28:57;;;;;;;2.77;0.60;;;12.40;99.90;;;;;;5116170;28;20443;-60
2023/01/04 10:31:30;;;;;;;0.87;0.57;;;12.40;99.90;;;;;;5116798;28;20493;-60
2023/01/04 10:34:04;;;;;;;1.10;1.00;;;12.40;99.90;;;;;;5116884;28;20427;-61
2023/01/04 10:36:32;;;;;;;0.93;0.50;;;12.30;99.90;;;;;;5116794;28;20428;-61
2023/01/04 10:39:03;;;;;;;1.23;1.13;;;12.30;99.90;;;;;;5116478;28;20449;-61
2023/01/04 10:41:36;;;;;;;3.43;0.90;;;12.30;99.90;;;;;;5117158;28;20517;-61
2023/01/04 10:44:13;;;;;;;2.10;0.47;;;12.30;99.90;;;;;;5117020;28;20498;-61
2023/01/04 10:46:44;;;;;;;2.30;0.87;;;12.40;99.90;;;;;;5116722;28;20855;-61
2023/01/04 10:49:17;;;;;;;0.90;0.40;;;12.50;99.90;;;;;;5116695;28;20421;-61
2023/01/04 10:51:49;;;;;;;2.23;0.60;;;12.50;99.90;;;;;;5116767;28;20989;-61
2023/01/04 10:54:24;;;;;;;4.00;0.70;;;12.50;99.90;;;;;;5116368;28;20814;-60
2023/01/04 10:56:57;;;;;;;2.30;1.00;;;12.60;99.90;;;;;;5115566;28;20423;-61
2023/01/04 10:59:29;;;;;;;0.60;0.60;;;12.60;99.90;;;;;;5116685;28;20442;-61
2023/01/04 11:02:00;;;;;;;2.40;0.80;;;12.60;99.90;;;;;;5116121;28;20997;-61
2023/01/04 11:04:32;;;;;;;1.20;0.73;;;12.70;99.90;;;;;;5116773;28;20438;-61
2023/01/04 11:07:05;;;;;;;2.90;1.20;;;12.70;99.90;;;;;;5115703;28;20894;-60
2023/01/04 11:09:40;;;;;;;1.83;0.67;;;12.70;99.90;;;;;;5116220;28;20445;-61
2023/01/04 11:12:11;;;;;;;1.03;0.70;;;12.70;99.90;;;;;;5116583;28;20901;-61
2023/01/04 11:14:37;;;;;;;2.87;0.77;;;12.70;99.90;;;;;;5116103;28;20944;-61
2023/01/04 11:17:07;;;;;;;0.63;0.60;;;12.60;99.90;;;;;;5116334;28;20431;-61
2023/01/04 11:19:34;;;;;;;0.60;0.60;;;12.60;99.90;;;;;;5116217;28;20427;-62
2023/01/04 11:22:07;;;;;;;0.57;0.57;;;12.70;99.90;;;;;;5115992;28;20459;-61
2023/01/04 11:24:36;;;;;;;1.87;0.73;;;12.70;99.90;;;;;;5115464;28;20435;-61
2023/01/04 11:27:07;;;;;;;0.57;0.50;;;12.80;99.90;;;;;;5115091;28;20972;-61
2023/01/04 11:29:41;;;;;;;1.87;1.00;;;12.80;99.90;;;;;;5115926;28;20443;-61
2023/01/04 11:32:16;;;;;;;2.20;0.53;;;12.70;99.90;;;;;;5115762;28;20555;-61
2023/01/04 11:34:49;;;;;;;2.30;0.70;;;12.70;99.90;;;;;;5115632;28;20434;-61
2023/01/04 11:37:28;;;;;;;2.20;0.80;;;12.70;99.90;;;;;;5115640;28;20466;-61
2023/01/04 11:40:12;;;;;;;0.87;0.70;;;12.70;99.90;;;;;;5115285;28;20461;-61
2023/01/04 11:42:39;;;;;;;0.57;0.43;;;12.80;99.90;;;;;;5115442;28;20455;-61
2023/01/04 11:45:07;;;;;;;2.20;0.90;;;12.80;99.90;;;;;;5114852;28;21036;-61
2023/01/04 11:47:33;;;;;;;1.33;0.60;;;12.70;99.90;;;;;;5114954;28;20488;-62
2023/01/04 11:50:00;;;;;;;1.67;0.60;;;12.80;99.90;;;;;;5114887;28;20493;-61
2023/01/04 11:52:32;;;;;;;1.10;0.70;;;12.80;99.90;;;;;;5114873;28;20486;-61
2023/01/04 11:55:22;;;;;;;1.70;0.90;;;12.80;99.90;;;;;;5114941;28;20438;-61
2023/01/04 11:58:05;;;;;;;2.07;0.80;;;12.80;99.90;;;;;;5114678;28;20458;-61
2023/01/04 12:00:32;;;;;;;2.20;0.67;;;12.80;99.90;;;;;;5114650;28;20431;-61
2023/01/04 12:03:11;;;;;;;1.03;0.70;;;12.80;99.90;;;;;;5114570;28;20451;-60
2023/01/04 12:05:38;;;;;;;2.50;1.63;;;12.80;99.90;;;;;;5114469;28;20856;-61
2023/01/04 12:08:05;;;;;;;0.93;0.73;;;12.80;99.90;;;;;;5113939;28;20446;-61
2023/01/04 12:10:33;;;;;;;0.47;0.47;;;12.90;99.90;;;;;;5113757;28;20896;-60
2023/01/04 12:13:01;;;;;;;1.00;0.70;;;12.90;99.90;;;;;;5114111;28;20435;-60
2023/01/04 12:15:35;;;;;;;1.50;0.60;;;13.00;99.90;;;;;;5113918;28;20826;-60
2023/01/04 12:18:05;;;;;;;0.60;0.50;;;12.90;99.90;;;;;;5114164;28;20435;-60
2023/01/04 12:20:32;;;;;;;1.57;0.50;;;12.90;99.90;;;;;;5114024;28;20821;-60
2023/01/04 12:22:58;;;;;;;1.00;0.50;;;12.90;99.90;;;;;;5113937;28;20478;-61
2023/01/04 12:25:35;;;;;;;0.73;0.43;;;12.90;99.90;;;;;;5114059;28;20445;-61
2023/01/04 12:28:03;;;;;;;1.17;0.40;;;12.80;99.90;;;;;;5114315;28;20459;-61
2023/01/04 12:30:36;;;;;;;0.80;0.60;;;12.80;99.90;;;;;;5114080;28;20439;-61
2023/01/04 12:33:38;;;;;;;0.40;0.40;;;12.80;99.90;;;;;;5114043;28;20427;-61
2023/01/04 12:36:06;;;;;;;0.63;0.63;;;12.80;99.90;;;;;;5115117;28;20477;-61
2023/01/04 12:39:00;;;;;;;0.40;0.30;;;12.80;99.90;;;;;;5114182;28;20435;-61
2023/01/04 12:42:09;;;;;;;0.50;0.50;;;12.70;99.90;;;;;;5114182;28;20474;-61
2023/01/04 12:45:01;;;;;;;0.53;0.47;;;12.70;99.90;;;;;;5107767;28;20553;-61
2023/01/04 12:50:30;;;;;;;2.63;0.53;;;12.80;99.90;;;;;;5113808;28;20451;-60
2023/01/04 12:52:59;;;;;;;2.57;0.50;;;12.80;99.90;;;;;;5113516;28;20501;-61
2023/01/04 12:55:51;;;;;;;0.50;0.40;;;12.90;99.90;;;;;;5113797;28;20442;-60
2023/01/04 12:58:57;;;;;;;1.13;0.50;;;12.90;99.90;;;;;;5113673;28;20434;-60
2023/01/04 13:01:27;;;;;;;0.40;0.40;;;12.90;99.90;;;;;;5114377;28;20478;-60
2023/01/04 13:03:59;;;;;;;2.30;0.40;;;12.90;99.90;;;;;;5117966;28;20434;-61
2023/01/04 13:06:29;;;;;;;0.40;0.30;;;12.90;99.90;;;;;;5117992;28;20809;-60
2023/01/04 13:08:56;;;;;;;0.50;0.50;;;13.00;99.90;;;;;;5118055;28;20435;-60
2023/01/04 13:11:45;;;;;;;1.20;0.47;;;13.00;99.90;;;;;;5117819;28;20487;-61
2023/01/04 13:14:20;;;;;;;0.40;0.30;;;13.10;99.90;;;;;;5117749;28;20427;-60
2023/01/04 13:17:04;;;;;;;0.50;0.47;;;13.00;99.90;;;;;;5117458;28;20850;-60
2023/01/04 13:19:31;;;;;;;0.63;0.40;;;13.00;99.90;;;;;;5117550;28;20439;-60
2023/01/04 13:21:58;;;;;;;1.07;0.57;;;13.10;99.90;;;;;;5117793;28;20459;-60
2023/01/04 13:24:29;;;;;;;0.80;0.47;;;13.10;99.90;;;;;;5117417;28;20458;-60
2023/01/04 13:26:56;;;;;;;2.50;0.50;;;13.10;99.90;;;;;;5117554;28;20439;-60
2023/01/04 13:29:25;;;;;;;0.40;0.30;;;13.10;99.90;;;;;;5117748;28;20436;-60
2023/01/04 13:31:57;;;;;;;1.37;0.63;;;13.10;99.90;;;;;;5117072;28;20490;-60
2023/01/04 13:34:27;;;;;;;0.40;0.40;;;13.10;99.90;;;;;;5117081;28;20466;-60
2023/01/04 13:37:08;;;;;;;0.40;0.40;;;13.20;99.90;;;;;;5117061;28;20840;-60
2023/01/04 13:39:35;;;;;;;0.70;0.70;;;13.20;99.90;;;;;;5116831;28;20462;-60
2023/01/04 13:42:03;;;;;;;0.87;0.50;;;13.30;99.90;;;;;;5116972;28;20478;-60
2023/01/04 13:45:06;;;;;;;2.93;0.60;;;13.30;99.90;;;;;;5117039;28;20454;-60
2023/01/04 13:47:36;;;;;;;0.60;0.50;;;13.30;99.90;;;;;;5106547;28;20447;-60
2023/01/04 13:50:04;;;;;;;0.50;0.40;;;13.30;99.90;;;;;;5116426;28;20843;-60